Time;durP1;ratioP1;P1;durP2;ratioP2;P2;SDS_P1;SDS_P2;PMS_P1;PMS_P2;Temp;Humidity;BMP_temperature;BMP_pressure;BME280_temperature;BME280_humidity;BME280_pressure;Samples;Min_cycle;Max_cycle;Signal;HPM_P1;HPM_P2
2022/11/01 00:01:28;;;;;;;12.88;4.90;;;;;;;;;;5024942;28;20087;-79
2022/11/01 00:03:54;;;;;;;15.98;5.40;;;;;;;;;;5020257;28;20052;-79
2022/11/01 00:06:20;;;;;;;10.63;4.43;;;;;;;;;;5018719;28;20076;-79
2022/11/01 00:08:47;;;;;;;10.50;5.20;;;;;;;;;;5019882;28;21711;-79
2022/11/01 00:11:14;;;;;;;11.48;4.93;;;;;;;;;;5030786;28;20029;-79
2022/11/01 00:13:43;;;;;;;16.73;4.93;;;;;;;;;;5036421;28;20052;-79
2022/11/01 00:16:09;;;;;;;12.57;4.50;;;;;;;;;;5023801;28;20026;-79
2022/11/01 00:18:35;;;;;;;13.43;4.35;;;;;;;;;;5021417;28;20030;-79
2022/11/01 00:21:03;;;;;;;15.57;5.03;;;;;;;;;;5023214;28;20025;-79
2022/11/01 00:23:29;;;;;;;11.38;4.18;;;;;;;;;;5020638;28;20032;-80
2022/11/01 00:25:58;;;;;;;16.80;5.75;;;;;;;;;;5034571;28;20034;-79
2022/11/01 00:28:24;;;;;;;13.43;4.78;;;;;;;;;;5034705;28;20025;-79
2022/11/01 00:30:54;;;;;;;10.10;4.43;;;;;;;;;;5031080;28;20036;-79
2022/11/01 00:33:20;;;;;;;8.43;4.10;;;;;;;;;;5018824;28;20041;-79
2022/11/01 00:35:47;;;;;;;20.83;4.55;;;;;;;;;;5020326;28;20033;-79
2022/11/01 00:38:13;;;;;;;11.60;4.18;;;;;;;;;;5033233;28;20111;-79
2022/11/01 00:40:39;;;;;;;15.57;4.20;;;;;;;;;;5020037;28;20076;-79
2022/11/01 00:43:05;;;;;;;10.55;4.90;;;;;;;;;;5017457;28;20052;-79
2022/11/01 00:45:36;;;;;;;12.35;4.50;;;;;;;;;;5017948;28;20029;-78
2022/11/01 00:48:02;;;;;;;12.88;4.75;;;;;;;;;;5030929;28;20033;-79
2022/11/01 00:50:28;;;;;;;12.95;5.00;;;;;;;;;;5019018;28;20438;-79
2022/11/01 00:52:54;;;;;;;16.52;4.90;;;;;;;;;;5018193;28;20037;-79
2022/11/01 00:55:23;;;;;;;10.60;5.00;;;;;;;;;;5020233;28;20084;-79
2022/11/01 00:57:49;;;;;;;15.25;4.78;;;;;;;;;;5033549;28;20061;-80
2022/11/01 01:00:15;;;;;;;11.50;5.35;;;;;;;;;;5018151;28;20033;-79
2022/11/01 01:02:41;;;;;;;12.82;5.85;;;;;;;;;;5020627;28;20025;-79
2022/11/01 01:05:08;;;;;;;12.98;4.82;;;;;;;;;;5033647;28;20406;-79
2022/11/01 01:07:34;;;;;;;14.77;5.25;;;;;;;;;;5016776;28;20052;-80
2022/11/01 01:10:00;;;;;;;14.20;5.70;;;;;;;;;;5019921;28;20424;-79
2022/11/01 01:12:28;;;;;;;12.43;4.90;;;;;;;;;;5019512;28;20072;-80
2022/11/01 01:14:54;;;;;;;10.30;4.97;;;;;;;;;;5015083;28;20030;-79
2022/11/01 01:17:20;;;;;;;16.23;5.40;;;;;;;;;;5017438;28;20474;-79
2022/11/01 01:19:48;;;;;;;12.18;5.10;;;;;;;;;;5020297;28;21715;-80
2022/11/01 01:22:14;;;;;;;14.25;5.55;;;;;;;;;;5023813;28;20038;-79
2022/11/01 01:24:44;;;;;;;13.43;5.05;;;;;;;;;;5025154;28;20025;-79
2022/11/01 01:27:11;;;;;;;21.30;5.88;;;;;;;;;;5034270;28;20906;-79
2022/11/01 01:29:40;;;;;;;13.95;5.15;;;;;;;;;;5025962;28;20122;-79
2022/11/01 01:32:07;;;;;;;10.48;4.80;;;;;;;;;;5024296;28;20884;-79
2022/11/01 01:34:35;;;;;;;12.75;5.10;;;;;;;;;;5032252;28;20447;-78
2022/11/01 01:37:01;;;;;;;14.80;5.22;;;;;;;;;;5037338;28;20026;-79
2022/11/01 01:39:30;;;;;;;13.57;4.47;;;;;;;;;;5024104;28;20116;-79
2022/11/01 01:41:56;;;;;;;11.07;5.50;;;;;;;;;;5056423;28;20037;-79
2022/11/01 01:45:00;;;;;;;21.00;4.88;;;;;;;;;;5026313;28;20363;-79
2022/11/01 01:47:26;;;;;;;12.13;4.90;;;;;;;;;;5000018;28;20042;-79
2022/11/01 01:50:00;;;;;;;10.38;4.88;;;;;;;;;;5011381;28;20454;-79
2022/11/01 01:52:28;;;;;;;16.30;4.65;;;;;;;;;;5020822;28;20046;-79
2022/11/01 01:54:54;;;;;;;8.32;4.72;;;;;;;;;;5022156;28;20033;-79
2022/11/01 01:57:26;;;;;;;14.38;4.85;;;;;;;;;;5035962;28;20032;-79
2022/11/01 01:59:52;;;;;;;10.40;5.03;;;;;;;;;;5021544;28;20913;-79
2022/11/01 02:02:23;;;;;;;15.18;4.88;;;;;;;;;;5027868;28;20092;-80
2022/11/01 02:04:57;;;;;;;16.50;5.38;;;;;;;;;;5022156;28;20029;-79
2022/11/01 02:07:24;;;;;;;13.98;5.50;;;;;;;;;;5022692;28;20036;-79
2022/11/01 02:09:50;;;;;;;18.52;4.60;;;;;;;;;;5035550;28;20041;-79
2022/11/01 02:12:17;;;;;;;14.00;5.90;;;;;;;;;;5024349;28;20145;-79
2022/11/01 02:14:46;;;;;;;16.00;5.18;;;;;;;;;;5019149;28;20041;-79
2022/11/01 02:17:15;;;;;;;18.30;4.93;;;;;;;;;;5020618;28;20026;-79
2022/11/01 02:19:44;;;;;;;10.02;4.93;;;;;;;;;;5022937;28;20747;-78
2022/11/01 02:22:32;;;;;;;11.40;5.25;;;;;;;;;;5040020;28;20038;-78
2022/11/01 02:25:18;;;;;;;13.20;4.60;;;;;;;;;;5035209;28;20099;-79
2022/11/01 02:28:04;;;;;;;9.38;4.63;;;;;;;;;;5018252;28;20061;-79
2022/11/01 02:30:38;;;;;;;9.63;4.20;;;;;;;;;;5036741;28;20036;-79
2022/11/01 02:33:07;;;;;;;11.95;4.20;;;;;;;;;;5023000;28;20040;-79
2022/11/01 02:35:54;;;;;;;11.32;4.38;;;;;;;;;;5023828;28;20025;-79
2022/11/01 02:38:26;;;;;;;7.25;4.18;;;;;;;;;;5039931;28;20030;-79
2022/11/01 02:41:02;;;;;;;8.05;4.07;;;;;;;;;;5034940;28;20030;-79
2022/11/01 02:43:39;;;;;;;8.82;4.15;;;;;;;;;;5018851;28;20354;-79
2022/11/01 02:48:56;;;;;;;14.38;3.78;;;;;;;;;;5017327;28;20045;-79
2022/11/01 02:51:23;;;;;;;16.23;4.65;;;;;;;;;;5032852;28;20034;-80
2022/11/01 02:53:49;;;;;;;8.40;3.45;;;;;;;;;;5022470;28;20030;-79
2022/11/01 02:56:17;;;;;;;9.55;4.13;;;;;;;;;;5021796;28;20033;-79
2022/11/01 02:58:44;;;;;;;12.80;4.15;;;;;;;;;;5034143;28;20048;-79
2022/11/01 03:01:14;;;;;;;10.45;3.47;;;;;;;;;;5025295;28;20033;-79
2022/11/01 03:03:41;;;;;;;9.63;3.83;;;;;;;;;;5022983;28;20037;-79
2022/11/01 03:06:13;;;;;;;11.30;3.45;;;;;;;;;;5020342;28;20079;-79
2022/11/01 03:08:44;;;;;;;9.85;4.38;;;;;;;;;;5025216;28;20125;-78
2022/11/01 03:11:10;;;;;;;7.65;3.35;;;;;;;;;;5022086;28;20040;-79
2022/11/01 03:13:42;;;;;;;9.30;4.25;;;;;;;;;;5021398;28;20030;-79
2022/11/01 03:16:11;;;;;;;10.65;3.03;;;;;;;;;;5031640;28;21645;-79
2022/11/01 03:18:40;;;;;;;10.05;3.35;;;;;;;;;;5023229;28;20026;-78
2022/11/01 03:21:14;;;;;;;10.13;3.50;;;;;;;;;;5035800;28;20037;-79
2022/11/01 03:23:44;;;;;;;12.23;3.45;;;;;;;;;;5021833;28;20036;-79
2022/11/01 03:26:13;;;;;;;13.35;4.32;;;;;;;;;;5031626;28;20076;-79
2022/11/01 03:28:41;;;;;;;13.25;4.20;;;;;;;;;;5019708;28;20022;-79
2022/11/01 03:31:16;;;;;;;7.82;3.53;;;;;;;;;;5018983;28;20045;-79
2022/11/01 03:33:46;;;;;;;9.50;3.03;;;;;;;;;;5029089;28;20069;-79
2022/11/01 03:36:16;;;;;;;8.50;2.90;;;;;;;;;;5024555;28;20033;-79
2022/11/01 03:38:48;;;;;;;8.85;3.10;;;;;;;;;;5033017;28;20117;-79
2022/11/01 03:41:15;;;;;;;7.87;3.20;;;;;;;;;;5022265;28;20021;-79
2022/11/01 03:43:42;;;;;;;8.93;3.05;;;;;;;;;;5031815;28;20030;-79
2022/11/01 03:46:08;;;;;;;4.88;2.45;;;;;;;;;;5020333;28;20022;-79
2022/11/01 03:48:38;;;;;;;14.80;2.90;;;;;;;;;;5020458;28;20053;-79
2022/11/01 03:51:05;;;;;;;9.80;3.13;;;;;;;;;;5034254;28;20033;-79
2022/11/01 03:53:31;;;;;;;8.45;2.95;;;;;;;;;;5017672;28;20853;-79
2022/11/01 03:55:57;;;;;;;11.20;2.90;;;;;;;;;;5017597;28;20025;-78
2022/11/01 03:58:23;;;;;;;9.68;2.63;;;;;;;;;;5014856;28;20145;-79
2022/11/01 04:00:49;;;;;;;7.90;3.15;;;;;;;;;;5030376;28;20148;-79
2022/11/01 04:03:15;;;;;;;7.13;2.85;;;;;;;;;;5037723;28;20037;-79
2022/11/01 04:05:42;;;;;;;8.85;2.78;;;;;;;;;;5017918;28;20030;-79
2022/11/01 04:08:11;;;;;;;5.15;2.88;;;;;;;;;;5033890;28;20239;-79
2022/11/01 04:10:37;;;;;;;10.00;3.55;;;;;;;;;;5018797;28;20473;-79
2022/11/01 04:13:03;;;;;;;8.55;3.63;;;;;;;;;;5017158;28;20033;-79
2022/11/01 04:21:02;;;;;;;8.82;3.35;;;;;;;;;;5023385;28;20044;-79
2022/11/01 04:23:28;;;;;;;12.88;3.22;;;;;;;;;;5019630;28;20033;-79
2022/11/01 04:25:54;;;;;;;10.30;3.63;;;;;;;;;;5024539;28;20104;-79
2022/11/01 04:28:22;;;;;;;10.48;3.50;;;;;;;;;;5034494;28;20033;-79
2022/11/01 04:30:48;;;;;;;11.80;3.47;;;;;;;;;;5019908;28;20474;-80
2022/11/01 04:33:15;;;;;;;8.48;3.47;;;;;;;;;;5036264;28;20040;-79
2022/11/01 04:35:41;;;;;;;9.38;4.65;;;;;;;;;;5033663;28;20026;-78
2022/11/01 04:38:07;;;;;;;5.40;2.95;;;;;;;;;;5023693;28;20030;-79
2022/11/01 04:40:33;;;;;;;7.13;2.90;;;;;;;;;;5033709;28;20045;-79
2022/11/01 04:42:59;;;;;;;6.25;2.75;;;;;;;;;;5029109;28;20038;-80
2022/11/01 04:45:25;;;;;;;12.30;3.38;;;;;;;;;;5032831;28;20041;-79
2022/11/01 04:48:15;;;;;;;7.68;3.10;;;;;;;;;;5025863;28;20324;-79
2022/11/01 04:50:42;;;;;;;5.72;3.08;;;;;;;;;;5031539;28;20049;-79
2022/11/01 04:53:09;;;;;;;9.23;3.03;;;;;;;;;;5018374;28;20137;-79
2022/11/01 04:55:35;;;;;;;6.57;3.22;;;;;;;;;;5021503;28;20049;-79
2022/11/01 04:58:02;;;;;;;8.90;3.50;;;;;;;;;;5021730;28;20026;-79
2022/11/01 05:00:28;;;;;;;10.45;3.88;;;;;;;;;;5017287;28;20497;-79
2022/11/01 05:03:00;;;;;;;10.07;3.17;;;;;;;;;;5019922;28;20044;-79
2022/11/01 05:05:26;;;;;;;7.53;3.38;;;;;;;;;;5032332;28;20656;-79
2022/11/01 05:07:58;;;;;;;7.13;3.20;;;;;;;;;;5019282;28;20034;-79
2022/11/01 05:10:24;;;;;;;;;;;;;;;;;;5036549;28;20060;-79
2022/11/01 05:12:50;;;;;;;10.25;3.22;;;;;;;;;;5018333;28;20353;-79
2022/11/01 05:15:16;;;;;;;14.38;4.13;;;;;;;;;;5024002;28;20370;-79
2022/11/01 05:17:42;;;;;;;6.50;3.22;;;;;;;;;;5020507;28;20156;-79
2022/11/01 05:20:09;;;;;;;6.35;3.10;;;;;;;;;;5019552;28;20037;-79
2022/11/01 05:22:35;;;;;;;11.63;4.07;;;;;;;;;;5021979;28;20039;-79
2022/11/01 05:25:01;;;;;;;9.13;3.47;;;;;;;;;;5032892;28;20041;-79
2022/11/01 05:27:27;;;;;;;7.70;3.10;;;;;;;;;;5019654;28;20037;-79
2022/11/01 05:29:53;;;;;;;9.60;3.25;;;;;;;;;;5022399;28;20030;-79
2022/11/01 05:32:19;;;;;;;10.77;3.67;;;;;;;;;;5017120;28;20033;-79
2022/11/01 05:34:48;;;;;;;8.82;3.00;;;;;;;;;;5019295;28;20462;-79
2022/11/01 05:37:15;;;;;;;10.52;3.17;;;;;;;;;;5020152;28;20152;-79
2022/11/01 05:39:41;;;;;;;5.32;2.38;;;;;;;;;;5018067;28;20025;-79
2022/11/01 05:42:07;;;;;;;14.73;2.30;;;;;;;;;;5021448;28;20038;-79
2022/11/01 05:44:33;;;;;;;12.48;2.80;;;;;;;;;;5036119;28;20518;-79
2022/11/01 05:47:03;;;;;;;6.68;2.20;;;;;;;;;;5031891;28;20370;-79
2022/11/01 05:49:29;;;;;;;9.32;2.20;;;;;;;;;;5030043;28;20049;-79
2022/11/01 05:51:55;;;;;;;8.57;1.83;;;;;;;;;;5019990;28;20038;-79
2022/11/01 05:54:21;;;;;;;8.05;2.17;;;;;;;;;;5031030;28;20077;-79
2022/11/01 05:56:48;;;;;;;4.32;2.45;;;;;;;;;;5019224;28;20025;-79
2022/11/01 05:59:14;;;;;;;13.25;3.00;;;;;;;;;;5030719;28;20025;-79
2022/11/01 06:01:40;;;;;;;5.55;2.22;;;;;;;;;;5021516;28;20572;-79
2022/11/01 06:04:06;;;;;;;8.30;2.47;;;;;;;;;;5017607;28;20040;-79
2022/11/01 06:06:33;;;;;;;5.13;2.28;;;;;;;;;;5035718;28;20053;-78
2022/11/01 06:08:59;;;;;;;12.93;2.28;;;;;;;;;;5025475;28;20056;-79
2022/11/01 06:11:25;;;;;;;6.90;2.30;;;;;;;;;;5022195;28;20041;-80
2022/11/01 06:13:53;;;;;;;6.55;1.95;;;;;;;;;;5022865;28;20056;-79
2022/11/01 06:16:19;;;;;;;4.57;1.67;;;;;;;;;;5023675;28;20022;-79
2022/11/01 06:18:45;;;;;;;12.32;1.92;;;;;;;;;;5022648;28;20075;-79
2022/11/01 06:21:11;;;;;;;3.97;1.92;;;;;;;;;;5023348;28;20044;-79
2022/11/01 06:23:37;;;;;;;6.10;2.08;;;;;;;;;;5020803;28;20898;-79
2022/11/01 06:26:04;;;;;;;3.70;1.85;;;;;;;;;;5035124;28;20493;-78
2022/11/01 06:28:31;;;;;;;4.80;1.88;;;;;;;;;;5030892;28;20034;-78
2022/11/01 06:31:01;;;;;;;5.60;1.75;;;;;;;;;;5023920;28;20045;-79
2022/11/01 06:33:29;;;;;;;6.28;2.13;;;;;;;;;;5019898;28;20513;-78
2022/11/01 06:35:55;;;;;;;5.35;1.70;;;;;;;;;;5021545;28;20501;-79
2022/11/01 06:38:21;;;;;;;4.60;1.63;;;;;;;;;;5022029;28;20029;-79
2022/11/01 06:40:47;;;;;;;4.18;1.80;;;;;;;;;;5022749;28;20033;-79
2022/11/01 06:43:16;;;;;;;7.03;1.33;;;;;;;;;;5021388;28;20044;-79
2022/11/01 06:45:44;;;;;;;5.95;1.80;;;;;;;;;;5020066;28;20029;-79
2022/11/01 06:48:10;;;;;;;6.47;1.30;;;;;;;;;;5035858;28;20391;-78
2022/11/01 06:50:36;;;;;;;3.17;1.85;;;;;;;;;;5022541;28;20918;-79
2022/11/01 06:53:02;;;;;;;4.68;1.10;;;;;;;;;;5032991;28;20131;-79
2022/11/01 06:55:29;;;;;;;4.80;0.90;;;;;;;;;;5021837;28;20025;-79
2022/11/01 06:57:58;;;;;;;6.32;1.73;;;;;;;;;;5036265;28;20048;-79
2022/11/01 07:00:27;;;;;;;8.43;1.25;;;;;;;;;;5021012;28;20033;-79
2022/11/01 07:03:11;;;;;;;2.83;0.70;;;;;;;;;;5020931;28;20109;-80
2022/11/01 07:05:40;;;;;;;4.63;0.93;;;;;;;;;;5032289;28;20041;-79
2022/11/01 07:08:07;;;;;;;2.90;0.70;;;;;;;;;;5034459;28;20042;-78
2022/11/01 07:10:37;;;;;;;7.90;1.35;;;;;;;;;;5036537;28;20443;-79
2022/11/01 07:13:04;;;;;;;5.60;0.88;;;;;;;;;;5032764;28;20026;-78
2022/11/01 07:15:30;;;;;;;5.07;1.52;;;;;;;;;;5019877;28;20029;-77
2022/11/01 07:18:00;;;;;;;5.32;0.80;;;;;;;;;;5032491;28;20034;-79
2022/11/01 07:20:27;;;;;;;4.55;1.38;;;;;;;;;;5029945;28;20120;-78
2022/11/01 07:22:59;;;;;;;5.13;0.90;;;;;;;;;;5022831;28;20420;-78
2022/11/01 07:25:25;;;;;;;;;;;;;;;;;;5022061;28;20050;-77
2022/11/01 07:27:51;;;;;;;6.27;1.00;;;;;;;;;;5019206;28;19909;-78
2022/11/01 07:30:18;;;;;;;6.93;0.80;;;;;;;;;;5021556;28;20037;-79
2022/11/01 07:32:44;;;;;;;3.33;0.70;;;;;;;;;;5019511;28;20452;-78
2022/11/01 07:35:10;;;;;;;3.37;0.70;;;;;;;;;;5019656;28;20596;-77
2022/11/01 07:37:36;;;;;;;5.60;0.60;;;;;;;;;;5020802;28;20477;-76
2022/11/01 07:40:02;;;;;;;7.30;0.80;;;;;;;;;;5018790;28;20038;-77
2022/11/01 07:42:28;;;;;;;3.93;0.90;;;;;;;;;;5032410;28;20041;-79
2022/11/01 07:44:54;;;;;;;5.83;1.30;;;;;;;;;;5031461;28;20029;-78
2022/11/01 07:47:20;;;;;;;1.57;0.50;;;;;;;;;;5030378;28;20048;-78
2022/11/01 07:49:47;;;;;;;6.53;1.10;;;;;;;;;;5027127;28;20037;-78
2022/11/01 07:52:13;;;;;;;5.00;0.97;;;;;;;;;;5016064;28;20048;-78
2022/11/01 07:54:39;;;;;;;2.90;0.90;;;;;;;;;;5020022;28;20461;-79
2022/11/01 07:57:05;;;;;;;5.77;0.53;;;;;;;;;;5019378;28;20029;-77
2022/11/01 07:59:31;;;;;;;10.17;1.17;;;;;;;;;;5018583;28;20055;-78
2022/11/01 08:01:59;;;;;;;13.67;1.20;;;;;;;;;;5017410;28;20459;-76
2022/11/01 08:04:25;;;;;;;6.23;1.43;;;;;;;;;;5020782;28;20037;-78
2022/11/01 08:06:51;;;;;;;10.10;2.20;;;;;;;;;;5036992;28;20128;-79
2022/11/01 08:09:23;;;;;;;9.10;1.70;;;;;;;;;;5016424;28;20048;-79
2022/11/01 08:11:49;;;;;;;9.67;2.03;;;;;;;;;;5034851;28;20030;-77
2022/11/01 08:14:15;;;;;;;13.40;2.20;;;;;;;;;;5029575;28;20139;-78
2022/11/01 08:16:41;;;;;;;13.53;1.73;;;;;;;;;;5031146;28;20033;-79
2022/11/01 08:19:07;;;;;;;14.40;1.77;;;;;;;;;;5021970;28;20036;-80
2022/11/01 08:21:33;;;;;;;9.90;2.20;;;;;;;;;;5019846;28;20041;-78
2022/11/01 08:23:59;;;;;;;12.30;2.47;;;;;;;;;;5031214;28;20491;-78
2022/11/01 08:26:25;;;;;;;20.00;3.42;;;;;;;;;;5030708;28;20418;-78
2022/11/01 08:28:52;;;;;;;10.33;2.13;;;;;;;;;;5034212;28;20029;-75
2022/11/01 08:31:18;;;;;;;14.40;1.80;;;;;;;;;;5016499;28;20091;-76
2022/11/01 08:33:44;;;;;;;8.90;2.50;;;;;;;;;;5031494;28;20037;-75
2022/11/01 08:36:13;;;;;;;8.47;1.53;;;;;;;;;;5027900;28;20087;-76
2022/11/01 08:38:39;;;;;;;6.10;1.90;;;;;;;;;;5021654;28;20035;-76
2022/11/01 08:41:05;;;;;;;10.37;1.90;;;;;;;;;;5017994;28;20025;-76
2022/11/01 08:43:31;;;;;;;9.80;1.67;;;;;;;;;;5017219;28;20045;-76
2022/11/01 08:45:58;;;;;;;8.57;1.73;;;;;;;;;;5022735;28;20026;-75
2022/11/01 08:48:24;;;;;;;15.10;2.97;;;;;;;;;;5017402;28;20053;-79
2022/11/01 08:50:53;;;;;;;7.27;1.60;;;;;;;;;;5017314;28;20038;-79
2022/11/01 08:53:19;;;;;;;13.57;1.75;;;;;;;;;;5033954;28;20092;-80
2022/11/01 08:55:45;;;;;;;14.63;3.10;;;;;;;;;;5023553;28;20055;-79
2022/11/01 08:58:20;;;;;;;8.30;1.50;;;;;;;;;;5022091;28;20046;-79
2022/11/01 09:00:46;;;;;;;9.43;1.73;;;;;;;;;;5018938;28;20053;-78
2022/11/01 09:03:13;;;;;;;10.10;1.80;;;;;;;;;;5020164;28;20036;-79
2022/11/01 09:05:39;;;;;;;12.30;1.73;;;;;;;;;;5019732;28;20030;-80
2022/11/01 09:08:06;;;;;;;7.70;1.73;;;;;;;;;;5019305;28;20049;-80
2022/11/01 09:10:38;;;;;;;11.63;2.10;;;;;;;;;;5031132;28;20030;-79
2022/11/01 09:13:07;;;;;;;10.35;1.80;;;;;;;;;;5030090;28;20033;-77
2022/11/01 09:15:33;;;;;;;8.80;1.52;;;;;;;;;;5028213;28;20038;-78
2022/11/01 09:18:08;;;;;;;6.35;1.52;;;;;;;;;;5018890;28;20021;-78
2022/11/01 09:20:34;;;;;;;7.28;1.52;;;;;;;;;;5028804;28;20084;-78
2022/11/01 09:23:03;;;;;;;8.18;1.85;;;;;;;;;;5029112;28;20030;-79
2022/11/01 09:25:29;;;;;;;5.53;1.13;;;;;;;;;;5018543;28;20366;-80
2022/11/01 09:27:56;;;;;;;11.40;2.05;;;;;;;;;;5016534;28;20080;-78
2022/11/01 09:30:22;;;;;;;11.63;1.75;;;;;;;;;;5029926;28;20034;-79
2022/11/01 09:32:49;;;;;;;8.57;1.83;;;;;;;;;;5029244;28;21743;-80
2022/11/01 09:35:16;;;;;;;5.35;1.63;;;;;;;;;;5049810;28;20040;-79
2022/11/01 09:37:42;;;;;;;7.95;2.53;;;;;;;;;;5016637;28;20092;-77
2022/11/01 09:40:09;;;;;;;5.05;1.50;;;;;;;;;;5023767;28;20056;-79
2022/11/01 09:42:40;;;;;;;6.40;1.63;;;;;;;;;;5024529;28;20025;-79
2022/11/01 09:45:09;;;;;;;6.68;1.67;;;;;;;;;;5038929;28;20025;-79
2022/11/01 09:47:36;;;;;;;10.32;1.83;;;;;;;;;;5019525;28;20033;-78
2022/11/01 09:50:17;;;;;;;12.40;1.67;;;;;;;;;;5020630;28;20460;-79
2022/11/01 09:52:43;;;;;;;7.10;1.25;;;;;;;;;;5023317;28;20037;-78
2022/11/01 09:55:18;;;;;;;5.28;1.08;;;;;;;;;;5018814;28;20459;-77
2022/11/01 09:57:52;;;;;;;13.40;1.23;;;;;;;;;;5032638;28;20029;-78
2022/11/01 10:00:19;;;;;;;9.00;1.60;;;;;;;;;;5033679;28;20025;-78
2022/11/01 10:02:49;;;;;;;5.90;1.73;;;;;;;;;;5032920;28;20042;-78
2022/11/01 10:05:34;;;;;;;4.05;1.20;;;;;;;;;;5023531;28;20068;-79
2022/11/01 10:08:14;;;;;;;10.63;2.38;;;;;;;;;;5022232;28;20520;-78
2022/11/01 10:10:40;;;;;;;8.88;1.80;;;;;;;;;;5034909;28;20030;-77
2022/11/01 10:13:16;;;;;;;11.95;1.48;;;;;;;;;;5022596;28;20029;-80
2022/11/01 10:15:50;;;;;;;5.97;1.52;;;;;;;;;;5031475;28;20029;-80
2022/11/01 10:18:26;;;;;;;7.78;1.40;;;;;;;;;;5023861;28;20039;-79
2022/11/01 10:20:52;;;;;;;11.05;1.60;;;;;;;;;;5020046;28;20104;-79
2022/11/01 10:23:29;;;;;;;12.95;1.80;;;;;;;;;;5020383;28;20034;-79
2022/11/01 10:25:55;;;;;;;5.47;1.42;;;;;;;;;;5034725;28;20463;-79
2022/11/01 10:28:24;;;;;;;6.00;1.30;;;;;;;;;;5023082;28;20041;-79
2022/11/01 10:30:53;;;;;;;6.20;1.23;;;;;;;;;;5036149;28;20097;-79
2022/11/01 10:33:46;;;;;;;5.13;0.93;;;;;;;;;;5032552;28;20462;-79
2022/11/01 10:36:16;;;;;;;8.93;1.38;;;;;;;;;;5014721;28;20034;-80
2022/11/01 10:38:46;;;;;;;8.07;1.13;;;;;;;;;;5031890;28;20021;-79
2022/11/01 10:41:17;;;;;;;4.32;1.08;;;;;;;;;;5024378;28;20158;-78
2022/11/01 10:43:45;;;;;;;6.70;1.48;;;;;;;;;;5017698;28;20055;-79
2022/11/01 10:46:13;;;;;;;5.60;1.67;;;;;;;;;;5022442;28;20101;-79
2022/11/01 10:49:00;;;;;;;9.23;1.60;;;;;;;;;;5035958;28;20036;-79
2022/11/01 10:51:28;;;;;;;7.88;1.98;;;;;;;;;;5034476;28;20036;-79
2022/11/01 10:54:01;;;;;;;8.18;1.40;;;;;;;;;;5035693;28;20043;-80
2022/11/01 10:56:27;;;;;;;;;;;;;;;;;;5034089;28;20053;-79
2022/11/01 10:59:15;;;;;;;7.00;1.27;;;;;;;;;;5022336;28;19964;-80
2022/11/01 11:01:43;;;;;;;6.13;1.27;;;;;;;;;;5035328;28;20026;-79
2022/11/01 11:04:12;;;;;;;18.20;1.52;;;;;;;;;;5023115;28;20397;-79
2022/11/01 11:06:39;;;;;;;8.07;1.98;;;;;;;;;;5023851;28;20041;-79
2022/11/01 11:09:06;;;;;;;8.75;1.30;;;;;;;;;;5022712;28;20026;-80
2022/11/01 11:11:41;;;;;;;6.43;1.58;;;;;;;;;;5042131;28;20101;-78
2022/11/01 11:14:11;;;;;;;8.90;1.70;;;;;;;;;;5023060;28;20029;-79
2022/11/01 11:16:39;;;;;;;6.50;1.92;;;;;;;;;;5032559;28;20048;-79
2022/11/01 11:19:21;;;;;;;6.55;1.10;;;;;;;;;;5023660;28;20036;-80
2022/11/01 11:21:52;;;;;;;8.97;1.77;;;;;;;;;;5028092;28;20087;-79
2022/11/01 11:24:19;;;;;;;7.18;1.63;;;;;;;;;;5023231;28;20367;-79
2022/11/01 11:26:47;;;;;;;8.98;1.38;;;;;;;;;;5031408;28;20034;-79
2022/11/01 11:29:21;;;;;;;11.80;1.70;;;;;;;;;;5024969;28;20077;-80
2022/11/01 11:31:54;;;;;;;10.07;1.55;;;;;;;;;;5020771;28;20473;-79
2022/11/01 11:34:27;;;;;;;7.03;1.58;;;;;;;;;;5018182;28;20450;-79
2022/11/01 11:36:54;;;;;;;7.47;2.03;;;;;;;;;;5020730;28;21019;-79
2022/11/01 11:39:36;;;;;;;10.43;1.83;;;;;;;;;;5021060;28;20045;-79
2022/11/01 11:42:15;;;;;;;8.35;1.65;;;;;;;;;;5021534;28;20117;-79
2022/11/01 11:44:43;;;;;;;6.68;1.92;;;;;;;;;;5018740;28;20104;-79
2022/11/01 11:47:20;;;;;;;6.53;1.38;;;;;;;;;;5020370;28;20686;-80
2022/11/01 11:49:47;;;;;;;8.90;1.50;;;;;;;;;;5034236;28;20342;-79
2022/11/01 11:52:17;;;;;;;13.30;2.17;;;;;;;;;;5022788;28;20040;-79
2022/11/01 11:54:43;;;;;;;11.88;1.75;;;;;;;;;;5017717;28;20095;-80
2022/11/01 11:57:20;;;;;;;10.73;1.90;;;;;;;;;;5019495;28;20051;-79
2022/11/01 11:59:50;;;;;;;13.63;2.05;;;;;;;;;;5032217;28;20034;-79
2022/11/01 12:02:19;;;;;;;11.00;2.00;;;;;;;;;;5018879;28;20030;-80
2022/11/01 12:04:47;;;;;;;8.80;1.65;;;;;;;;;;5023755;28;20033;-80
2022/11/01 12:07:27;;;;;;;7.18;2.60;;;;;;;;;;5020068;28;20048;-79
2022/11/01 12:09:54;;;;;;;12.30;1.70;;;;;;;;;;5031152;28;20785;-80
2022/11/01 12:12:23;;;;;;;8.88;1.33;;;;;;;;;;5030563;28;20029;-80
2022/11/01 12:14:49;;;;;;;6.93;1.55;;;;;;;;;;5022929;28;20033;-80
2022/11/01 12:17:26;;;;;;;6.75;1.88;;;;;;;;;;5021985;28;20029;-80
2022/11/01 12:20:08;;;;;;;6.68;1.33;;;;;;;;;;5032703;28;20242;-80
2022/11/01 12:22:35;;;;;;;7.05;1.63;;;;;;;;;;5036985;28;20383;-80
2022/11/01 12:25:04;;;;;;;7.07;1.77;;;;;;;;;;5033443;28;20030;-80
2022/11/01 12:27:32;;;;;;;10.45;1.98;;;;;;;;;;5021652;28;20516;-79
2022/11/01 12:30:07;;;;;;;9.50;2.17;;;;;;;;;;5022679;28;20166;-80
2022/11/01 12:32:37;;;;;;;6.32;1.13;;;;;;;;;;5024410;28;20022;-80
2022/11/01 12:35:06;;;;;;;6.15;1.58;;;;;;;;;;5037272;28;20022;-80
2022/11/01 12:37:41;;;;;;;11.38;1.58;;;;;;;;;;5021954;28;20053;-79
2022/11/01 12:40:20;;;;;;;13.60;2.20;;;;;;;;;;5027695;28;20469;-78
2022/11/01 12:42:53;;;;;;;10.15;1.70;;;;;;;;;;5031228;28;20034;-77
2022/11/01 12:45:38;;;;;;;7.90;1.70;;;;;;;;;;5029906;28;20372;-78
2022/11/01 12:48:18;;;;;;;6.80;1.45;;;;;;;;;;5036692;28;20087;-79
2022/11/01 12:50:53;;;;;;;9.35;1.50;;;;;;;;;;5018327;28;20030;-78
2022/11/01 12:53:21;;;;;;;7.78;1.83;;;;;;;;;;5018300;28;20033;-76
2022/11/01 12:55:47;;;;;;;9.90;1.98;;;;;;;;;;5020333;28;20107;-79
2022/11/01 12:58:16;;;;;;;4.47;1.30;;;;;;;;;;5031426;28;20034;-78
2022/11/01 13:00:42;;;;;;;5.63;1.52;;;;;;;;;;5020268;28;20029;-77
2022/11/01 13:03:35;;;;;;;10.32;1.70;;;;;;;;;;5025662;28;20026;-78
2022/11/01 13:06:16;;;;;;;9.48;2.30;;;;;;;;;;5028312;28;20053;-77
2022/11/01 13:08:58;;;;;;;8.38;1.42;;;;;;;;;;5029498;28;20465;-77
2022/11/01 13:11:24;;;;;;;;;;;;;;;;;;5021297;28;20112;-78
2022/11/01 13:13:59;;;;;;;9.02;1.80;;;;;;;;;;5015668;28;19992;-78
2022/11/01 13:16:34;;;;;;;10.35;1.65;;;;;;;;;;5029663;28;20529;-78
2022/11/01 13:19:17;;;;;;;5.47;1.90;;;;;;;;;;5032213;28;20141;-78
2022/11/01 13:21:48;;;;;;;7.13;1.50;;;;;;;;;;5027882;28;20029;-77
2022/11/01 13:24:46;;;;;;;5.90;1.65;;;;;;;;;;5027263;28;20108;-78
2022/11/01 13:27:21;;;;;;;9.32;2.17;;;;;;;;;;5026533;28;20124;-77
2022/11/01 13:29:53;;;;;;;8.55;1.70;;;;;;;;;;5029782;28;20045;-77
2022/11/01 13:32:28;;;;;;;6.30;1.25;;;;;;;;;;5027364;28;20030;-78
2022/11/01 13:35:13;;;;;;;6.53;2.05;;;;;;;;;;5031978;28;20022;-78
2022/11/01 13:37:46;;;;;;;6.60;1.48;;;;;;;;;;5015747;28;20458;-76
2022/11/01 13:40:31;;;;;;;6.22;1.42;;;;;;;;;;5017061;28;20137;-77
2022/11/01 13:43:07;;;;;;;6.57;1.13;;;;;;;;;;5016490;28;20029;-76
2022/11/01 13:45:42;;;;;;;6.15;1.55;;;;;;;;;;5016216;28;20065;-77
2022/11/01 13:48:23;;;;;;;6.93;1.80;;;;;;;;;;5031367;28;20038;-78
2022/11/01 13:51:00;;;;;;;7.90;1.73;;;;;;;;;;5018051;28;20033;-77
2022/11/01 13:53:33;;;;;;;9.40;1.42;;;;;;;;;;5020949;28;20034;-78
2022/11/01 13:56:02;;;;;;;7.22;1.60;;;;;;;;;;5018171;28;20097;-77
2022/11/01 13:58:30;;;;;;;6.88;1.65;;;;;;;;;;5018775;28;20088;-78
2022/11/01 14:00:56;;;;;;;4.15;1.20;;;;;;;;;;5032884;28;20121;-79
2022/11/01 14:03:28;;;;;;;9.45;1.38;;;;;;;;;;5028313;28;20084;-78
2022/11/01 14:06:13;;;;;;;6.53;1.35;;;;;;;;;;5020430;28;20099;-78
2022/11/01 14:08:39;;;;;;;4.25;1.30;;;;;;;;;;5019528;28;20073;-78
2022/11/01 14:11:06;;;;;;;7.82;1.42;;;;;;;;;;5015913;28;20048;-78
2022/11/01 14:13:37;;;;;;;8.30;2.00;;;;;;;;;;5022003;28;20030;-78
2022/11/01 14:16:20;;;;;;;7.47;1.50;;;;;;;;;;5017697;28;20410;-78
2022/11/01 14:19:09;;;;;;;7.63;1.60;;;;;;;;;;5030148;28;20038;-78
2022/11/01 14:21:46;;;;;;;6.60;1.80;;;;;;;;;;5027489;28;20037;-78
2022/11/01 14:24:22;;;;;;;9.27;1.23;;;;;;;;;;5025922;28;20060;-78
2022/11/01 14:27:07;;;;;;;7.18;1.70;;;;;;;;;;5026950;28;20038;-78
2022/11/01 14:29:35;;;;;;;10.02;1.83;;;;;;;;;;5018217;28;20040;-77
2022/11/01 14:32:01;;;;;;;6.40;1.23;;;;;;;;;;5032382;28;20114;-78
2022/11/01 14:34:34;;;;;;;7.18;1.17;;;;;;;;;;5033013;28;20022;-77
2022/11/01 14:37:00;;;;;;;;;;;;;;;;;;5021434;28;20021;-77
2022/11/01 14:39:31;;;;;;;4.85;1.20;;;;;;;;;;5024290;28;19912;-77
2022/11/01 14:41:58;;;;;;;4.93;1.35;;;;;;;;;;5021335;28;20086;-78
2022/11/01 14:44:28;;;;;;;5.30;1.42;;;;;;;;;;5021455;28;20025;-78
2022/11/01 14:46:56;;;;;;;5.50;1.92;;;;;;;;;;5021509;28;20026;-77
2022/11/01 14:49:25;;;;;;;7.88;1.25;;;;;;;;;;5028466;28;20033;-78
2022/11/01 14:51:51;;;;;;;7.47;1.80;;;;;;;;;;5031699;28;20073;-77
2022/11/01 14:54:30;;;;;;;9.93;1.65;;;;;;;;;;5029264;28;20104;-78
2022/11/01 14:56:57;;;;;;;9.35;1.20;;;;;;;;;;5030144;28;20033;-77
2022/11/01 14:59:28;;;;;;;4.57;1.20;;;;;;;;;;5025354;28;20041;-79
2022/11/01 15:02:06;;;;;;;7.07;1.67;;;;;;;;;;5032057;28;20033;-78
2022/11/01 15:04:39;;;;;;;6.63;1.42;;;;;;;;;;5022175;28;20124;-78